Time;durP1;ratioP1;P1;durP2;ratioP2;P2;SDS_P1;SDS_P2;PMS_P1;PMS_P2;Temp;Humidity;BMP_temperature;BMP_pressure;BME280_temperature;BME280_humidity;BME280_pressure;Samples;Min_cycle;Max_cycle;Signal;HPM_P1;HPM_P2
2022/06/08 03:01:10;;;;;;;0.63;0.40;;;24.90;46.90;;;;;;5713185;22;45960;-61
2022/06/08 03:03:39;;;;;;;0.63;0.35;;;24.90;46.90;;;;;;4922515;28;47039;-61
2022/06/08 03:06:07;;;;;;;0.40;0.40;;;24.90;46.90;;;;;;4921197;28;45040;-60
2022/06/08 03:08:38;;;;;;;0.50;0.38;;;24.90;46.90;;;;;;4898672;28;45293;-60
2022/06/08 03:11:04;;;;;;;0.40;0.40;;;24.90;46.90;;;;;;4924128;28;45218;-61
2022/06/08 03:13:37;;;;;;;1.20;0.50;;;24.90;46.90;;;;;;4930814;28;45279;-62
2022/06/08 03:16:03;;;;;;;;;;;24.90;46.80;;;;;;4937156;28;44683;-61
2022/06/08 03:18:29;;;;;;;1.08;0.52;;;24.80;46.90;;;;;;4946368;28;45361;-61
2022/06/08 03:20:56;;;;;;;0.80;0.40;;;24.80;46.80;;;;;;4925164;28;45313;-61
2022/06/08 03:23:21;;;;;;;3.10;0.50;;;24.80;46.80;;;;;;4923001;28;46126;-61
2022/06/08 03:25:47;;;;;;;0.40;0.35;;;24.80;46.80;;;;;;4925924;28;45393;-61
2022/06/08 03:28:14;;;;;;;0.90;0.50;;;24.80;46.80;;;;;;4939004;28;45189;-61
2022/06/08 03:30:41;;;;;;;0.47;0.45;;;24.80;46.80;;;;;;4914345;28;45664;-62
2022/06/08 03:33:07;;;;;;;0.55;0.52;;;24.80;46.80;;;;;;4927745;28;45936;-63
2022/06/08 03:35:32;;;;;;;0.80;0.50;;;24.80;46.80;;;;;;4949952;28;45470;-62
2022/06/08 03:37:59;;;;;;;0.30;0.30;;;24.80;46.80;;;;;;4950760;28;45302;-58
2022/06/08 03:40:25;;;;;;;0.75;0.60;;;24.80;46.80;;;;;;4949165;28;45048;-61
2022/06/08 03:42:50;;;;;;;1.75;0.50;;;24.80;46.80;;;;;;4937544;28;48473;-60
2022/06/08 03:45:17;;;;;;;0.63;0.40;;;24.80;46.80;;;;;;4950100;28;45381;-61
2022/06/08 03:47:45;;;;;;;2.25;0.50;;;24.80;46.80;;;;;;4950064;28;45597;-60
2022/06/08 03:50:12;;;;;;;0.50;0.40;;;24.80;46.80;;;;;;4915113;28;45943;-61
2022/06/08 03:52:40;;;;;;;0.30;0.30;;;24.80;46.80;;;;;;4917694;28;46039;-61
2022/06/08 03:55:06;;;;;;;0.80;0.32;;;24.80;46.80;;;;;;4916333;28;45570;-62
2022/06/08 03:57:32;;;;;;;0.30;0.30;;;24.80;46.80;;;;;;4930654;28;45042;-60
2022/06/08 04:00:00;;;;;;;1.17;0.40;;;24.80;46.80;;;;;;4933929;28;44976;-64
2022/06/08 04:02:26;;;;;;;1.50;0.30;;;24.80;46.80;;;;;;4923295;28;45224;-62
2022/06/08 04:04:51;;;;;;;0.32;0.30;;;24.80;46.80;;;;;;4926351;28;45331;-62
2022/06/08 04:07:17;;;;;;;0.80;0.40;;;24.80;46.80;;;;;;4927066;28;45905;-60
2022/06/08 04:09:43;;;;;;;1.15;0.40;;;24.70;46.70;;;;;;4922882;28;44995;-61
2022/06/08 04:12:09;;;;;;;3.13;0.50;;;24.80;46.80;;;;;;4932433;28;46338;-61
2022/06/08 04:14:34;;;;;;;2.45;0.38;;;24.70;46.70;;;;;;4915048;28;45739;-61
2022/06/08 04:17:01;;;;;;;0.77;0.52;;;24.70;46.80;;;;;;4931732;28;45355;-59
2022/06/08 04:19:27;;;;;;;0.90;0.45;;;24.70;46.80;;;;;;4928250;28;44835;-61
2022/06/08 04:21:53;;;;;;;0.40;0.40;;;24.70;46.80;;;;;;4929262;28;46050;-60
2022/06/08 04:24:19;;;;;;;0.38;0.38;;;24.70;46.70;;;;;;4930002;28;45333;-61
2022/06/08 04:26:45;;;;;;;0.55;0.30;;;24.70;46.80;;;;;;4929641;28;45663;-59
2022/06/08 04:29:10;;;;;;;0.57;0.50;;;24.70;46.80;;;;;;4927612;28;44823;-62
2022/06/08 04:31:36;;;;;;;1.08;0.30;;;24.70;46.80;;;;;;4902228;28;45891;-61
2022/06/08 04:34:04;;;;;;;0.68;0.40;;;24.70;46.90;;;;;;4928595;28;45930;-60
2022/06/08 04:36:31;;;;;;;0.40;0.30;;;24.70;46.90;;;;;;4933037;28;45032;-59
2022/06/08 04:38:57;;;;;;;0.40;0.40;;;24.70;46.90;;;;;;4927351;28;45164;-59
2022/06/08 04:41:23;;;;;;;3.03;0.47;;;24.70;46.90;;;;;;4928821;28;46215;-62
2022/06/08 04:43:48;;;;;;;0.30;0.30;;;24.70;47.00;;;;;;4930723;28;45428;-62
2022/06/08 04:46:17;;;;;;;1.55;0.40;;;24.70;47.00;;;;;;4927191;28;45457;-60
2022/06/08 04:48:43;;;;;;;0.40;0.28;;;24.70;47.00;;;;;;4928073;28;45086;-61
2022/06/08 04:51:10;;;;;;;0.95;0.40;;;24.70;47.00;;;;;;4929137;28;46967;-60
2022/06/08 04:53:39;;;;;;;0.30;0.30;;;24.70;47.00;;;;;;4918301;28;45364;-61
2022/06/08 04:56:05;;;;;;;0.40;0.40;;;24.70;47.00;;;;;;4884441;28;45464;-61
2022/06/08 04:58:31;;;;;;;0.88;0.45;;;24.70;47.10;;;;;;4932482;28;45294;-62
2022/06/08 05:00:56;;;;;;;1.27;0.40;;;24.70;47.10;;;;;;4910565;28;45830;-62
2022/06/08 05:03:22;;;;;;;0.40;0.40;;;24.70;47.20;;;;;;4930125;28;44717;-60
2022/06/08 05:05:48;;;;;;;0.70;0.40;;;24.70;47.20;;;;;;4934170;28;46171;-62
2022/06/08 05:08:13;;;;;;;0.47;0.43;;;24.70;47.20;;;;;;4929480;28;45041;-61
2022/06/08 05:10:39;;;;;;;0.45;0.40;;;24.70;47.20;;;;;;4926596;28;46135;-65
2022/06/08 05:13:06;;;;;;;0.38;0.30;;;24.70;47.20;;;;;;4927311;28;45437;-61
2022/06/08 05:15:34;;;;;;;0.55;0.40;;;24.70;47.30;;;;;;4930478;28;45474;-61
2022/06/08 05:17:59;;;;;;;0.40;0.40;;;24.70;47.30;;;;;;4935019;28;45527;-62
2022/06/08 05:20:25;;;;;;;0.47;0.32;;;24.70;47.30;;;;;;4933647;28;45320;-60
2022/06/08 05:22:51;;;;;;;1.27;0.35;;;24.70;47.20;;;;;;4930371;28;44703;-62
2022/06/08 05:25:24;;;;;;;0.68;0.52;;;24.70;47.20;;;;;;4933656;28;45863;-62
2022/06/08 05:27:49;;;;;;;0.40;0.40;;;24.80;47.20;;;;;;4932991;28;45220;-63
2022/06/08 05:30:15;;;;;;;0.50;0.50;;;24.80;47.20;;;;;;4936172;28;46596;-60
2022/06/08 05:32:41;;;;;;;0.30;0.30;;;24.80;47.10;;;;;;4937786;28;45497;-60
2022/06/08 05:35:07;;;;;;;0.28;0.25;;;24.80;47.10;;;;;;4936121;28;44976;-61
2022/06/08 05:37:32;;;;;;;0.85;0.35;;;25.00;46.90;;;;;;4933872;28;45355;-62
2022/06/08 05:39:58;;;;;;;1.40;0.43;;;25.00;46.80;;;;;;4941000;28;45436;-59
2022/06/08 05:42:24;;;;;;;0.52;0.43;;;25.00;46.60;;;;;;4935995;28;45505;-61
2022/06/08 05:44:49;;;;;;;0.35;0.30;;;25.00;46.60;;;;;;4940496;28;45318;-62
2022/06/08 05:47:16;;;;;;;0.40;0.40;;;25.10;46.70;;;;;;4936436;28;45485;-63
2022/06/08 05:49:42;;;;;;;0.30;0.30;;;25.00;46.60;;;;;;4938063;28;46220;-60
2022/06/08 05:52:08;;;;;;;0.47;0.35;;;25.10;46.70;;;;;;4935406;28;45046;-60
2022/06/08 05:54:34;;;;;;;0.57;0.50;;;25.10;46.70;;;;;;4938509;28;45110;-61
2022/06/08 05:56:59;;;;;;;0.68;0.40;;;25.20;46.60;;;;;;4937810;28;45491;-60
2022/06/08 05:59:25;;;;;;;2.15;0.40;;;25.20;46.50;;;;;;4939687;28;45376;-60
2022/06/08 06:01:51;;;;;;;2.80;0.63;;;25.20;46.50;;;;;;4940410;28;45186;-60
2022/06/08 06:04:17;;;;;;;0.55;0.40;;;25.20;46.50;;;;;;4940022;28;44858;-59
2022/06/08 06:06:46;;;;;;;0.40;0.40;;;25.30;46.50;;;;;;4942699;28;45429;-60
2022/06/08 06:09:13;;;;;;;0.70;0.47;;;25.20;46.50;;;;;;4941019;28;45585;-62
2022/06/08 06:11:38;;;;;;;1.17;0.50;;;25.20;46.50;;;;;;4948929;28;45406;-61
2022/06/08 06:14:04;;;;;;;3.30;0.40;;;25.20;46.60;;;;;;4940436;28;45150;-61
2022/06/08 06:16:30;;;;;;;2.17;0.30;;;25.20;46.60;;;;;;4940278;28;45289;-61
2022/06/08 06:18:56;;;;;;;0.65;0.50;;;25.30;46.60;;;;;;4939488;28;47326;-59
2022/06/08 06:21:25;;;;;;;0.65;0.50;;;25.30;46.60;;;;;;4939932;28;44975;-60
2022/06/08 06:23:54;;;;;;;1.38;0.40;;;25.30;46.50;;;;;;4925742;28;45017;-62
2022/06/08 06:26:20;;;;;;;0.30;0.30;;;25.30;46.50;;;;;;4935998;28;45532;-61
2022/06/08 06:28:45;;;;;;;0.30;0.30;;;25.40;46.50;;;;;;4933545;28;45788;-61
2022/06/08 06:31:17;;;;;;;0.68;0.30;;;25.40;46.50;;;;;;4938344;28;45454;-60
2022/06/08 06:33:43;;;;;;;0.75;0.50;;;25.40;46.40;;;;;;4936459;28;45052;-61
2022/06/08 06:36:08;;;;;;;2.05;0.50;;;25.50;46.40;;;;;;4940584;28;45439;-61
2022/06/08 06:38:34;;;;;;;0.30;0.30;;;25.50;46.40;;;;;;4939842;28;45448;-61
2022/06/08 06:40:59;;;;;;;0.90;0.32;;;25.60;46.20;;;;;;4941301;28;45424;-59
2022/06/08 06:43:25;;;;;;;1.25;0.43;;;25.70;46.20;;;;;;4942450;28;45459;-59
2022/06/08 06:45:51;;;;;;;0.45;0.43;;;25.70;46.00;;;;;;4935542;28;45133;-60
2022/06/08 06:48:16;;;;;;;0.47;0.30;;;25.80;46.00;;;;;;4943102;28;45321;-60
2022/06/08 06:50:42;;;;;;;0.50;0.47;;;25.80;45.90;;;;;;4938821;28;45368;-59
2022/06/08 06:53:09;;;;;;;2.15;0.45;;;25.90;45.90;;;;;;4942917;28;44862;-58
2022/06/08 06:55:34;;;;;;;1.15;0.50;;;25.90;45.90;;;;;;4920112;28;44991;-58
2022/06/08 06:58:00;;;;;;;0.40;0.32;;;25.90;45.90;;;;;;4939113;28;46236;-59
2022/06/08 07:00:25;;;;;;;0.50;0.35;;;25.90;45.90;;;;;;4944995;28;45340;-58
2022/06/08 07:02:51;;;;;;;0.30;0.30;;;26.00;46.00;;;;;;4956654;28;45568;-56
2022/06/08 07:05:19;;;;;;;0.38;0.38;;;26.00;46.00;;;;;;4955885;28;45236;-57
2022/06/08 07:07:45;;;;;;;0.95;0.45;;;26.00;46.00;;;;;;4954777;28;46822;-58
2022/06/08 07:10:11;;;;;;;0.60;0.30;;;26.00;46.00;;;;;;4966870;28;44971;-58
2022/06/08 07:12:36;;;;;;;1.33;0.47;;;26.00;46.00;;;;;;4959804;28;45486;-56
2022/06/08 07:15:02;;;;;;;0.32;0.32;;;26.00;46.10;;;;;;4959624;28;44796;-56
2022/06/08 07:17:28;;;;;;;0.30;0.30;;;26.00;46.10;;;;;;4952765;28;46090;-59
2022/06/08 07:19:53;;;;;;;0.40;0.40;;;26.00;46.10;;;;;;4958229;28;45345;-58
2022/06/08 07:22:19;;;;;;;0.90;0.28;;;25.90;46.10;;;;;;4956813;28;45518;-59
2022/06/08 07:24:45;;;;;;;0.40;0.40;;;26.00;46.20;;;;;;4959635;28;45265;-60
2022/06/08 07:27:10;;;;;;;0.77;0.32;;;26.00;46.20;;;;;;4960332;28;46278;-59
2022/06/08 07:29:36;;;;;;;0.57;0.40;;;26.00;46.20;;;;;;4962311;28;45259;-60
2022/06/08 07:32:02;;;;;;;0.35;0.32;;;26.00;46.20;;;;;;4959004;28;46272;-59
2022/06/08 07:34:27;;;;;;;2.75;0.60;;;26.00;46.20;;;;;;4944441;28;45817;-59
2022/06/08 07:36:53;;;;;;;0.60;0.47;;;26.00;46.20;;;;;;4959169;28;46073;-58
2022/06/08 07:39:19;;;;;;;0.40;0.40;;;26.00;46.10;;;;;;4959358;28;45583;-60
2022/06/08 07:41:45;;;;;;;0.30;0.30;;;26.00;46.10;;;;;;4956166;28;45219;-58
2022/06/08 07:44:10;;;;;;;0.50;0.50;;;26.00;46.10;;;;;;4959601;28;45412;-56
2022/06/08 07:46:36;;;;;;;0.40;0.40;;;26.10;46.20;;;;;;4956070;28;46051;-59
2022/06/08 07:51:53;;;;;;;0.65;0.40;;;26.10;46.20;;;;;;4941828;28;45275;-58
2022/06/08 07:54:25;;;;;;;0.38;0.30;;;26.10;46.20;;;;;;4954292;28;45574;-58
2022/06/08 07:56:51;;;;;;;0.60;0.40;;;26.10;46.10;;;;;;4956057;28;45860;-59
2022/06/08 07:59:18;;;;;;;0.77;0.40;;;26.10;46.20;;;;;;4955294;28;45310;-56
2022/06/08 08:01:43;;;;;;;0.38;0.30;;;26.10;46.10;;;;;;4960524;28;45378;-59
2022/06/08 08:04:09;;;;;;;1.35;0.50;;;26.20;46.10;;;;;;4959740;28;45262;-59
2022/06/08 08:06:34;;;;;;;1.58;0.47;;;26.20;46.10;;;;;;4939662;28;47035;-57
2022/06/08 08:09:00;;;;;;;0.98;0.40;;;26.20;46.10;;;;;;4957195;28;45299;-58
2022/06/08 08:11:26;;;;;;;0.40;0.30;;;26.20;46.00;;;;;;4955702;28;44957;-59
2022/06/08 08:13:52;;;;;;;0.88;0.45;;;26.20;46.10;;;;;;4954552;28;45292;-60
2022/06/08 08:16:18;;;;;;;0.60;0.50;;;26.20;46.00;;;;;;4953641;28;46035;-60
2022/06/08 08:18:43;;;;;;;0.28;0.28;;;26.20;46.00;;;;;;4955196;28;44831;-60
2022/06/08 08:21:09;;;;;;;0.77;0.47;;;26.20;46.60;;;;;;4957611;28;45364;-60
2022/06/08 08:23:34;;;;;;;0.93;0.38;;;26.20;46.00;;;;;;4938761;28;45628;-57
2022/06/08 08:26:00;;;;;;;0.77;0.50;;;26.20;46.00;;;;;;4956631;28;46046;-59
2022/06/08 08:28:25;;;;;;;1.00;0.55;;;26.30;46.10;;;;;;4957129;28;45647;-59
2022/06/08 08:30:51;;;;;;;0.47;0.35;;;26.30;46.10;;;;;;4952772;28;45245;-59
2022/06/08 08:33:16;;;;;;;1.02;0.32;;;26.30;46.10;;;;;;4941470;28;45374;-57
2022/06/08 08:35:42;;;;;;;0.55;0.28;;;26.30;46.10;;;;;;4956963;28;46841;-57
2022/06/08 08:38:08;;;;;;;0.57;0.40;;;26.30;46.10;;;;;;4955691;28;45045;-55
2022/06/08 08:40:56;;;;;;;0.57;0.40;;;26.30;46.10;;;;;;4942354;28;44940;-58
2022/06/08 08:43:24;;;;;;;0.70;0.25;;;26.30;46.20;;;;;;4941343;28;45965;-58
2022/06/08 08:45:53;;;;;;;0.65;0.40;;;26.30;46.20;;;;;;4941744;28;47350;-59
2022/06/08 08:48:27;;;;;;;0.63;0.30;;;26.30;46.80;;;;;;4938925;28;45243;-58
2022/06/08 08:51:01;;;;;;;0.40;0.40;;;26.30;46.10;;;;;;4955522;28;45474;-59
2022/06/08 08:53:40;;;;;;;0.57;0.50;;;26.30;46.10;;;;;;4926462;28;45211;-59
2022/06/08 08:56:16;;;;;;;0.73;0.60;;;26.40;46.10;;;;;;4928612;28;45519;-60
2022/06/08 08:58:44;;;;;;;0.52;0.52;;;26.40;46.00;;;;;;4938705;28;44687;-63
2022/06/08 09:01:28;;;;;;;1.40;0.38;;;26.40;46.00;;;;;;4927269;28;45210;-60
2022/06/08 09:04:35;;;;;;;0.60;0.40;;;26.50;46.00;;;;;;4944216;28;45819;-60
2022/06/08 09:07:12;;;;;;;0.93;0.43;;;26.50;45.20;;;;;;4892846;28;45963;-59
2022/06/08 09:09:38;;;;;;;2.35;0.68;;;26.50;44.30;;;;;;4944597;28;45196;-57
2022/06/08 09:12:04;;;;;;;1.20;0.47;;;26.50;44.10;;;;;;4942151;28;45124;-60
2022/06/08 09:14:49;;;;;;;2.28;0.40;;;26.50;44.00;;;;;;4960062;28;45015;-58
2022/06/08 09:17:20;;;;;;;3.30;0.43;;;26.50;43.40;;;;;;4945700;28;45480;-57
2022/06/08 09:19:47;;;;;;;1.02;0.50;;;26.40;43.70;;;;;;4935442;28;45602;-58
2022/06/08 09:22:13;;;;;;;3.83;0.88;;;26.40;43.80;;;;;;4938833;28;45576;-57
2022/06/08 09:24:59;;;;;;;0.88;0.50;;;26.40;43.60;;;;;;4952891;28;45238;-59
2022/06/08 09:27:33;;;;;;;1.88;0.70;;;26.30;42.70;;;;;;4935904;28;45471;-59
2022/06/08 09:30:08;;;;;;;1.95;0.50;;;26.30;43.20;;;;;;4950232;28;45473;-58
2022/06/08 09:32:37;;;;;;;2.05;0.52;;;26.30;43.20;;;;;;4957046;28;45532;-59
2022/06/08 09:35:14;;;;;;;1.05;0.55;;;26.30;43.20;;;;;;4956307;28;45217;-58
2022/06/08 09:37:40;;;;;;;1.42;0.52;;;26.30;43.00;;;;;;4953505;28;46812;-58
2022/06/08 09:40:36;;;;;;;2.05;0.40;;;26.30;43.10;;;;;;4942968;28;45166;-57
2022/06/08 09:42:57;;;;;;;1.15;0.55;;;26.30;42.90;;;;;;4930541;28;45586;-59
2022/06/08 09:45:37;;;;;;;1.48;0.50;;;26.30;42.80;;;;;;4929149;28;45239;-58
2022/06/08 09:51:27;;;;;;;3.25;0.70;;;26.30;42.20;;;;;;4933423;28;45274;-59
2022/06/08 09:54:05;;;;;;;1.52;0.40;;;26.20;42.10;;;;;;4948627;28;45252;-56
2022/06/08 09:56:47;;;;;;;2.70;0.60;;;26.20;42.30;;;;;;4940951;28;45378;-58
2022/06/08 09:59:42;;;;;;;5.53;0.60;;;26.20;42.20;;;;;;4931266;28;47449;-56
2022/06/08 10:02:30;;;;;;;2.08;0.57;;;26.20;42.00;;;;;;4944555;28;45558;-58
2022/06/08 10:05:23;;;;;;;1.83;0.60;;;26.20;41.70;;;;;;4962605;28;45519;-61
2022/06/08 10:08:30;;;;;;;2.75;0.47;;;26.20;42.10;;;;;;4958280;28;45634;-61
2022/06/08 10:11:40;;;;;;;3.53;0.70;;;26.10;41.90;;;;;;4939191;28;45202;-61
2022/06/08 10:14:12;;;;;;;4.07;0.50;;;26.10;41.80;;;;;;4951414;28;45232;-62
2022/06/08 10:16:40;;;;;;;2.25;0.70;;;26.20;42.20;;;;;;4957266;28;45178;-61
2022/06/08 10:19:08;;;;;;;1.35;0.45;;;26.20;41.90;;;;;;4950476;28;44905;-62
2022/06/08 10:21:39;;;;;;;5.22;0.80;;;26.20;41.70;;;;;;4926446;28;46065;-62
2022/06/08 10:24:23;;;;;;;2.55;0.60;;;26.30;41.50;;;;;;4945728;28;45420;-60
2022/06/08 10:27:12;;;;;;;2.40;0.50;;;26.30;39.90;;;;;;4960556;28;45096;-61
2022/06/08 10:29:46;;;;;;;0.80;0.47;;;26.30;39.50;;;;;;4940088;28;45042;-61
2022/06/08 10:32:17;;;;;;;2.45;0.57;;;26.30;40.20;;;;;;4941034;28;45240;-62
2022/06/08 10:34:43;;;;;;;2.13;0.50;;;26.40;40.40;;;;;;4945451;28;44727;-62
2022/06/08 10:37:16;;;;;;;2.40;0.40;;;26.40;40.20;;;;;;4941766;28;45202;-60
2022/06/08 10:39:42;;;;;;;1.52;0.47;;;26.40;40.10;;;;;;4960954;28;45322;-62
2022/06/08 10:42:39;;;;;;;2.58;0.50;;;26.30;39.80;;;;;;4935142;28;45323;-61
2022/06/08 10:45:29;;;;;;;1.13;0.50;;;26.30;39.30;;;;;;4944732;28;45256;-61
2022/06/08 10:48:22;;;;;;;0.80;0.30;;;26.30;38.40;;;;;;4939673;28;44874;-60
2022/06/08 10:50:49;;;;;;;1.80;0.40;;;26.30;39.40;;;;;;4959579;28;44878;-60
2022/06/08 10:56:36;;;;;;;0.70;0.20;;;26.40;38.80;;;;;;4959798;28;45440;-62
2022/06/08 10:59:08;;;;;;;0.63;0.30;;;26.40;38.00;;;;;;4956882;28;45489;-59
2022/06/08 11:02:00;;;;;;;0.95;0.40;;;26.50;39.00;;;;;;4942040;28;45699;-59
2022/06/08 11:04:35;;;;;;;1.05;0.35;;;26.40;38.20;;;;;;4959129;28;46060;-58
2022/06/08 11:07:11;;;;;;;1.23;0.40;;;26.40;38.80;;;;;;4956529;28;45303;-59
2022/06/08 11:09:37;;;;;;;2.53;0.25;;;26.40;38.40;;;;;;4945316;28;45187;-58
2022/06/08 11:12:12;;;;;;;1.58;0.40;;;26.40;38.60;;;;;;4959801;28;45222;-60
2022/06/08 11:14:43;;;;;;;2.67;0.65;;;26.50;38.20;;;;;;4962418;28;45304;-58
2022/06/08 11:17:29;;;;;;;3.15;0.45;;;26.50;38.20;;;;;;4960568;28;45412;-61
2022/06/08 11:20:16;;;;;;;1.02;0.30;;;26.50;37.20;;;;;;4956683;28;44743;-59
2022/06/08 11:23:06;;;;;;;2.10;0.50;;;26.60;37.10;;;;;;4940906;28;45352;-60
2022/06/08 11:25:35;;;;;;;1.05;0.55;;;26.60;36.80;;;;;;4934105;28;45800;-58
2022/06/08 11:28:27;;;;;;;1.35;0.30;;;26.60;37.70;;;;;;4939156;28;44729;-59
2022/06/08 11:30:54;;;;;;;1.00;0.30;;;26.50;36.90;;;;;;4958681;28;44898;-57
2022/06/08 11:33:20;;;;;;;3.25;0.38;;;26.60;37.80;;;;;;4958480;28;45623;-58
2022/06/08 11:36:08;;;;;;;7.50;0.63;;;26.50;37.80;;;;;;4963556;28;45958;-59
2022/06/08 11:39:24;;;;;;;1.52;0.43;;;26.60;36.60;;;;;;4947448;28;45372;-56
2022/06/08 11:41:58;;;;;;;1.77;0.30;;;26.50;36.80;;;;;;4914339;28;45258;-58
2022/06/08 11:44:24;;;;;;;3.08;0.45;;;26.50;37.00;;;;;;4949917;28;45351;-60
2022/06/08 11:46:53;;;;;;;1.02;0.40;;;26.50;37.50;;;;;;4927511;28;45841;-60
2022/06/08 11:49:26;;;;;;;0.88;0.20;;;26.50;37.40;;;;;;4940588;28;45334;-58
2022/06/08 11:51:51;;;;;;;;;;;26.50;36.80;;;;;;4957842;28;45226;-59
2022/06/08 11:54:29;;;;;;;1.00;0.17;;;26.50;36.50;;;;;;4962758;28;44916;-58
2022/06/08 11:57:16;;;;;;;3.20;0.35;;;26.50;37.10;;;;;;4961363;28;46194;-59
2022/06/08 11:59:44;;;;;;;2.22;0.40;;;26.50;36.70;;;;;;4931872;28;45239;-58
2022/06/08 12:02:20;;;;;;;0.93;0.40;;;26.60;37.60;;;;;;4923241;28;45317;-59
2022/06/08 12:04:48;;;;;;;0.68;0.32;;;26.60;36.90;;;;;;4958169;28;45498;-56
2022/06/08 12:07:41;;;;;;;1.23;0.43;;;26.60;37.30;;;;;;4961759;28;46121;-59
2022/06/08 12:10:09;;;;;;;1.65;0.40;;;26.60;36.40;;;;;;4956244;28;45191;-56
2022/06/08 12:12:35;;;;;;;1.65;0.32;;;26.60;37.10;;;;;;4944472;28;45219;-60
2022/06/08 12:15:38;;;;;;;2.25;0.32;;;26.60;37.00;;;;;;4929349;28;44792;-58
2022/06/08 12:18:27;;;;;;;1.08;0.40;;;26.60;35.80;;;;;;4957335;28;46200;-60
2022/06/08 12:21:19;;;;;;;1.30;0.50;;;26.60;36.30;;;;;;4956974;28;45225;-61
2022/06/08 12:23:56;;;;;;;1.17;0.38;;;26.60;36.10;;;;;;4960136;28;45323;-59
2022/06/08 12:26:23;;;;;;;1.45;0.40;;;26.60;35.90;;;;;;4957448;28;45158;-58
2022/06/08 12:29:13;;;;;;;0.82;0.30;;;26.60;36.40;;;;;;4960313;28;45420;-58
2022/06/08 12:31:38;;;;;;;1.42;0.30;;;26.60;36.60;;;;;;4938205;28;45463;-57
2022/06/08 12:34:23;;;;;;;1.05;0.35;;;26.60;36.80;;;;;;4953103;28;45255;-58
2022/06/08 12:36:49;;;;;;;0.90;0.40;;;26.70;35.90;;;;;;4961872;28;45547;-59
2022/06/08 12:39:15;;;;;;;2.05;0.50;;;26.70;36.60;;;;;;4953591;28;46080;-61
2022/06/08 12:41:51;;;;;;;1.67;0.30;;;26.70;36.70;;;;;;4961675;28;45194;-58
2022/06/08 12:44:21;;;;;;;5.53;0.40;;;26.70;36.40;;;;;;4963836;28;44734;-58
2022/06/08 12:47:11;;;;;;;1.13;0.40;;;26.70;36.20;;;;;;4959828;28;44760;-59
2022/06/08 12:49:41;;;;;;;1.13;0.40;;;26.80;35.90;;;;;;4938768;28;45312;-60
2022/06/08 12:52:24;;;;;;;1.38;0.40;;;26.80;36.50;;;;;;4956039;28;46420;-58
2022/06/08 12:54:50;;;;;;;3.93;0.30;;;26.70;35.60;;;;;;4956224;28;45226;-58
2022/06/08 12:57:19;;;;;;;1.42;0.30;;;26.70;36.30;;;;;;4956636;28;45240;-58
2022/06/08 12:59:46;;;;;;;1.75;0.43;;;26.70;36.40;;;;;;4938016;28;46060;-59
2022/06/08 13:02:23;;;;;;;3.05;0.30;;;26.80;36.30;;;;;;4957454;28;44592;-60
2022/06/08 13:04:49;;;;;;;2.35;0.20;;;26.80;35.10;;;;;;4956928;28;45376;-57
2022/06/08 13:07:18;;;;;;;0.98;0.50;;;26.80;35.90;;;;;;4943801;28;45708;-58
2022/06/08 13:09:44;;;;;;;1.05;0.35;;;26.80;35.60;;;;;;4941806;28;46109;-61
2022/06/08 13:12:11;;;;;;;1.38;0.40;;;26.80;35.60;;;;;;4954099;28;45633;-61
2022/06/08 13:14:37;;;;;;;0.88;0.40;;;26.80;35.90;;;;;;4944852;28;45324;-60
2022/06/08 13:17:03;;;;;;;0.95;0.40;;;26.80;35.60;;;;;;4927815;28;45512;-59
2022/06/08 13:19:29;;;;;;;0.73;0.35;;;26.90;35.70;;;;;;4959861;28;45175;-59
2022/06/08 13:21:54;;;;;;;0.95;0.43;;;26.90;35.50;;;;;;4936505;28;45677;-59
2022/06/08 13:24:20;;;;;;;0.82;0.38;;;26.90;35.30;;;;;;4938706;28;45805;-58
2022/06/08 13:26:46;;;;;;;2.03;0.40;;;27.00;35.40;;;;;;4961930;28;45414;-60
2022/06/08 13:29:12;;;;;;;0.47;0.22;;;27.00;35.40;;;;;;4926983;28;46178;-59
2022/06/08 13:31:37;;;;;;;0.85;0.20;;;27.00;35.30;;;;;;4941377;28;45409;-58
2022/06/08 13:34:03;;;;;;;1.15;0.50;;;27.10;35.20;;;;;;4955190;28;46477;-61
2022/06/08 13:36:54;;;;;;;2.33;0.60;;;27.00;35.10;;;;;;4921350;28;45642;-58
2022/06/08 13:39:35;;;;;;;0.65;0.35;;;27.10;34.50;;;;;;4952861;28;45988;-61
2022/06/08 13:42:10;;;;;;;2.78;0.40;;;27.10;33.50;;;;;;4929552;28;46195;-60
2022/06/08 13:44:45;;;;;;;2.38;0.28;;;27.10;34.10;;;;;;4940493;28;45231;-60
2022/06/08 13:47:12;;;;;;;3.13;0.30;;;27.10;33.90;;;;;;4959350;28;45269;-61
2022/06/08 13:49:41;;;;;;;1.88;0.50;;;27.20;34.00;;;;;;4959710;28;46170;-61
2022/06/08 13:52:07;;;;;;;2.78;0.30;;;27.20;33.50;;;;;;4944934;28;45352;-60
2022/06/08 13:54:38;;;;;;;1.05;0.30;;;27.20;33.70;;;;;;4928793;28;45309;-60
2022/06/08 13:57:10;;;;;;;3.03;0.32;;;27.10;33.40;;;;;;4964375;28;46127;-63
2022/06/08 13:59:36;;;;;;;1.02;0.20;;;27.10;33.60;;;;;;4958072;28;46209;-57
2022/06/08 14:02:04;;;;;;;0.57;0.30;;;27.20;33.80;;;;;;4929149;28;44585;-60
2022/06/08 14:04:30;;;;;;;0.20;0.20;;;27.10;33.60;;;;;;4929309;28;45194;-57
2022/06/08 14:15:12;;;;;;;2.83;0.40;;;27.20;33.40;;;;;;4962034;28;45025;-59
2022/06/08 14:17:39;;;;;;;1.15;0.30;;;27.30;33.50;;;;;;4945324;28;45571;-59
2022/06/08 14:20:06;;;;;;;1.27;0.30;;;27.30;33.40;;;;;;4949039;28;47322;-59
2022/06/08 14:22:34;;;;;;;1.85;0.30;;;27.30;33.30;;;;;;4943544;28;44635;-59
2022/06/08 14:25:04;;;;;;;1.15;0.30;;;27.30;33.20;;;;;;4958085;28;46375;-60
2022/06/08 14:27:33;;;;;;;0.70;0.30;;;27.30;33.00;;;;;;4954999;28;45249;-59
2022/06/08 14:29:59;;;;;;;1.10;0.25;;;27.30;33.00;;;;;;4947484;28;46195;-57
2022/06/08 14:32:38;;;;;;;0.88;0.25;;;27.30;32.90;;;;;;4944475;28;44752;-58
2022/06/08 14:35:07;;;;;;;1.15;0.30;;;27.30;32.60;;;;;;4925042;28;45551;-61
2022/06/08 14:37:33;;;;;;;1.95;0.20;;;27.30;32.90;;;;;;4931014;28;46258;-63
2022/06/08 14:39:59;;;;;;;1.45;0.38;;;27.30;33.20;;;;;;4951499;28;46015;-57
2022/06/08 14:42:25;;;;;;;0.82;0.32;;;27.30;33.30;;;;;;4963024;28;45210;-60
2022/06/08 14:44:51;;;;;;;0.88;0.40;;;27.30;33.20;;;;;;4942185;28;45191;-60
2022/06/08 14:47:20;;;;;;;0.82;0.30;;;27.30;33.20;;;;;;4956906;28;44646;-60
2022/06/08 14:49:46;;;;;;;2.05;0.43;;;27.30;33.00;;;;;;4941072;28;45448;-61
2022/06/08 14:52:13;;;;;;;0.50;0.20;;;27.40;33.20;;;;;;4923717;28;44741;-63
2022/06/08 14:54:40;;;;;;;1.60;0.30;;;27.30;33.30;;;;;;4946924;28;45897;-62
2022/06/08 14:57:33;;;;;;;0.80;0.25;;;27.30;33.40;;;;;;4957915;28;45721;-60
2022/06/08 15:00:00;;;;;;;0.20;0.20;;;27.30;32.70;;;;;;4945422;28;47078;-62
2022/06/08 15:02:32;;;;;;;0.98;0.25;;;27.20;33.50;;;;;;4924934;28;45715;-61
2022/06/08 15:04:57;;;;;;;1.33;0.40;;;27.20;33.70;;;;;;4943684;28;45031;-61
2022/06/08 15:07:23;;;;;;;0.65;0.28;;;27.20;33.80;;;;;;4926766;28;45278;-61
2022/06/08 15:09:50;;;;;;;1.58;0.40;;;27.20;33.90;;;;;;4945043;28;45923;-62
2022/06/08 15:12:18;;;;;;;0.95;0.22;;;27.20;34.00;;;;;;4945661;28;45456;-61
2022/06/08 15:14:49;;;;;;;0.70;0.30;;;27.20;34.10;;;;;;4954625;28;45388;-62
2022/06/08 15:17:21;;;;;;;0.30;0.20;;;27.20;34.20;;;;;;4957722;28;46318;-60
2022/06/08 15:19:52;;;;;;;0.37;0.20;;;27.20;34.30;;;;;;4938548;28;45569;-62
2022/06/08 15:22:19;;;;;;;1.30;0.22;;;27.20;34.30;;;;;;4932818;28;45265;-61
2022/06/08 15:24:45;;;;;;;0.65;0.28;;;27.20;34.50;;;;;;4947344;28;45651;-62
2022/06/08 15:27:27;;;;;;;0.98;0.30;;;27.10;34.50;;;;;;4951269;28;45670;-61
2022/06/08 15:29:52;;;;;;;0.65;0.28;;;27.20;34.20;;;;;;4933669;28;46193;-62
2022/06/08 15:32:21;;;;;;;2.13;0.85;;;27.20;34.70;;;;;;4931389;28;45363;-62
2022/06/08 15:34:48;;;;;;;0.60;0.30;;;27.10;34.70;;;;;;4915921;28;45495;-60
2022/06/08 15:37:21;;;;;;;0.88;0.38;;;27.10;34.80;;;;;;4950054;28;45705;-61
2022/06/08 15:39:47;;;;;;;1.25;0.30;;;27.20;34.90;;;;;;4934187;28;45444;-60
2022/06/08 15:42:13;;;;;;;1.10;0.40;;;27.20;35.00;;;;;;4918980;28;45972;-62
2022/06/08 15:44:40;;;;;;;1.33;0.40;;;27.20;35.10;;;;;;4932880;28;45783;-63
2022/06/08 15:47:06;;;;;;;3.17;0.30;;;27.10;35.10;;;;;;4950290;28;45477;-62
2022/06/08 15:49:32;;;;;;;0.47;0.30;;;27.10;35.20;;;;;;4934842;28;46601;-62
2022/06/08 15:52:03;;;;;;;0.60;0.30;;;27.10;35.30;;;;;;4934417;28;45688;-62
2022/06/08 15:54:31;;;;;;;1.15;0.32;;;27.10;35.80;;;;;;4933701;28;45650;-61
2022/06/08 15:56:58;;;;;;;1.60;0.40;;;27.10;35.40;;;;;;4903980;28;45720;-60
2022/06/08 16:00:08;;;;;;;2.08;0.30;;;27.10;35.40;;;;;;4917910;28;45393;-61
2022/06/08 16:02:33;;;;;;;0.35;0.20;;;27.10;35.20;;;;;;4937366;28;44844;-62
2022/06/08 16:05:00;;;;;;;0.90;0.30;;;27.10;35.60;;;;;;4937720;28;46288;-61
2022/06/08 16:07:26;;;;;;;2.13;0.22;;;27.10;35.60;;;;;;4932758;28;45515;-62
2022/06/08 16:09:51;;;;;;;0.70;0.30;;;27.10;35.70;;;;;;4952583;28;46074;-62
2022/06/08 16:12:17;;;;;;;0.63;0.30;;;27.10;35.80;;;;;;4937733;28;45596;-61
2022/06/08 16:14:42;;;;;;;0.93;0.40;;;27.10;35.90;;;;;;4933244;28;45563;-62
2022/06/08 16:17:15;;;;;;;1.42;0.40;;;27.10;35.90;;;;;;4949129;28;45311;-62
2022/06/08 16:19:44;;;;;;;0.27;0.23;;;27.10;36.00;;;;;;4916216;28;46204;-61
2022/06/08 16:22:10;;;;;;;1.42;0.30;;;27.00;36.00;;;;;;4951103;28;45609;-62